createdAt,value
2022-09-15T02:39:58.270Z,12.95
2022-09-15T02:45:02.077Z,12.85
2022-09-15T02:50:04.778Z,12.60
2022-09-15T02:55:07.260Z,12.20
2022-09-15T03:00:13.530Z,12.24
2022-09-15T03:05:17.171Z,12.18
2022-09-15T03:10:20.204Z,12.12
2022-09-15T03:15:24.915Z,12.28
2022-09-15T03:20:28.906Z,12.41
2022-09-15T03:25:30.946Z,12.24
2022-09-15T03:30:33.161Z,12.30
2022-09-15T03:35:35.548Z,12.57
2022-09-15T03:40:38.182Z,12.52
2022-09-15T03:45:40.631Z,12.28
2022-09-15T03:50:43.130Z,12.37
2022-09-15T03:55:46.446Z,12.67
2022-09-15T04:00:49.843Z,12.24
2022-09-15T04:05:52.110Z,12.52
2022-09-15T04:10:55.362Z,12.64
2022-09-15T04:16:07.312Z,12.94
2022-09-15T04:21:14.998Z,13.12
2022-09-15T04:26:28.375Z,13.22
2022-09-15T04:31:30.824Z,13.38
2022-09-15T04:36:33.152Z,13.59
2022-09-15T04:41:35.502Z,13.80
2022-09-15T04:46:38.080Z,14.03
2022-09-15T04:51:40.602Z,13.92
2022-09-15T04:56:42.992Z,14.06
2022-09-15T05:01:45.889Z,14.42
2022-09-15T05:06:48.427Z,14.39
2022-09-15T05:11:50.655Z,14.81
2022-09-15T05:16:52.745Z,14.76
2022-09-15T05:21:54.919Z,14.86
2022-09-15T05:26:57.222Z,15.21
2022-09-15T05:31:59.477Z,14.85
2022-09-15T05:37:02.203Z,15.21
2022-09-15T05:42:04.799Z,15.52
2022-09-15T05:47:06.964Z,16.91
2022-09-15T05:52:09.115Z,21.84
2022-09-15T05:57:11.686Z,25.94
2022-09-15T06:02:14.326Z,27.92
2022-09-15T06:07:17.103Z,30.38
2022-09-15T06:12:19.466Z,31.51
2022-09-15T06:17:23.271Z,32.43
2022-09-15T06:22:25.985Z,33.19
2022-09-15T06:27:28.120Z,32.93
2022-09-15T06:32:30.550Z,32.91
2022-09-15T06:37:32.958Z,33.36
2022-09-15T06:42:35.291Z,34.01
2022-09-15T06:47:38.666Z,34.95
2022-09-15T06:52:40.743Z,35.08
2022-09-15T06:57:42.815Z,35.77
2022-09-15T07:02:45.128Z,35.87
2022-09-15T07:07:47.559Z,35.30
2022-09-15T07:12:49.858Z,34.64
2022-09-15T07:17:51.906Z,34.28
2022-09-15T07:22:54.122Z,33.96
2022-09-15T07:27:56.338Z,33.28
2022-09-15T07:32:58.658Z,33.63
2022-09-15T07:38:00.985Z,34.08
2022-09-15T07:43:07.029Z,34.06
2022-09-15T07:48:09.094Z,34.28
2022-09-15T07:53:35.206Z,34.20
2022-09-15T07:58:37.462Z,34.38
2022-09-15T08:03:42.021Z,34.58
2022-09-15T08:08:44.414Z,34.90
2022-09-15T08:13:53.772Z,35.53
2022-09-15T08:18:57.260Z,35.90
2022-09-15T08:24:01.594Z,36.72
2022-09-15T08:29:04.121Z,36.96
2022-09-15T08:34:07.209Z,37.04
2022-09-15T08:39:09.604Z,36.77
2022-09-15T08:44:30.476Z,37.53
2022-09-15T08:49:57.090Z,37.85
2022-09-15T08:55:11.588Z,37.65
2022-09-15T09:00:20.382Z,38.50
2022-09-15T09:05:34.698Z,38.76
2022-09-15T09:10:57.013Z,39.32
2022-09-15T09:16:23.083Z,38.96
2022-09-15T09:21:31.781Z,39.32
2022-09-15T09:26:36.901Z,38.96
2022-09-15T09:31:41.142Z,38.39
2022-09-15T09:36:43.594Z,38.92
2022-09-15T09:41:45.879Z,38.91
2022-09-15T09:46:49.497Z,38.29
2022-09-15T09:51:55.868Z,38.23
2022-09-15T09:57:22.766Z,38.02
2022-09-15T10:02:29.094Z,36.97
2022-09-15T10:07:33.983Z,37.20
2022-09-15T10:12:42.077Z,36.86
2022-09-15T10:17:48.734Z,37.93
2022-09-15T10:22:51.839Z,36.78
2022-09-15T10:28:11.365Z,37.31
2022-09-15T10:33:42.114Z,37.07
2022-09-15T10:38:52.400Z,36.65
2022-09-15T10:44:25.619Z,36.74
2022-09-15T10:49:45.892Z,36.71
2022-09-15T10:55:16.447Z,35.98
2022-09-15T11:00:25.905Z,36.12
2022-09-15T11:05:40.382Z,35.94
2022-09-15T11:10:54.064Z,36.13
2022-09-15T11:16:18.312Z,35.94
2022-09-15T11:21:32.922Z,35.06
2022-09-15T11:26:43.563Z,34.78
2022-09-15T11:31:51.679Z,35.52
2022-09-15T11:37:15.413Z,35.55
2022-09-15T11:42:35.105Z,35.57
2022-09-15T11:47:42.726Z,35.53
2022-09-15T11:52:52.443Z,35.11
2022-09-15T11:58:03.922Z,34.56
2022-09-15T12:03:18.401Z,34.70
2022-09-15T12:08:34.330Z,34.48
2022-09-15T12:13:37.345Z,34.54
2022-09-15T12:18:58.134Z,34.50
2022-09-15T12:24:34.065Z,34.25
2022-09-15T12:29:42.131Z,33.71
2022-09-15T12:35:01.711Z,33.73
2022-09-15T12:40:07.888Z,33.67
2022-09-15T12:45:25.551Z,33.45
2022-09-15T12:50:47.021Z,33.54
2022-09-15T12:55:55.723Z,33.13
2022-09-15T13:01:19.778Z,33.80
2022-09-15T13:06:27.201Z,34.07
2022-09-15T13:11:38.749Z,33.88
2022-09-15T13:16:41.944Z,33.51
2022-09-15T13:22:06.798Z,33.31
2022-09-15T13:27:10.457Z,32.98
2022-09-15T13:32:32.016Z,32.64
2022-09-15T13:38:20.052Z,32.74
2022-09-15T13:43:59.722Z,32.72
2022-09-15T13:49:20.306Z,32.50
2022-09-15T13:54:22.700Z,32.32
2022-09-15T13:59:30.281Z,32.03
2022-09-15T14:04:32.738Z,32.24
2022-09-15T14:09:45.344Z,32.09
2022-09-15T14:14:53.993Z,31.93
2022-09-15T14:20:30.449Z,32.08
2022-09-15T14:25:35.765Z,31.54
2022-09-15T14:30:44.616Z,31.54
2022-09-15T14:35:47.687Z,31.51
2022-09-15T14:40:57.148Z,31.49
2022-09-15T14:46:15.973Z,30.80
2022-09-15T14:51:24.854Z,30.64
2022-09-15T14:56:33.209Z,30.59
2022-09-15T15:01:37.491Z,30.54
2022-09-15T15:12:38.910Z,29.49
2022-09-15T15:17:57.808Z,29.42
2022-09-15T15:23:21.259Z,28.85
2022-09-15T15:28:36.832Z,28.80
2022-09-15T15:33:49.577Z,28.29
2022-09-15T15:38:54.900Z,28.06
2022-09-15T15:44:17.539Z,27.83
2022-09-15T15:49:26.533Z,27.38
2022-09-15T15:54:32.575Z,26.93
2022-09-15T15:59:34.884Z,26.22
2022-09-15T16:04:36.994Z,25.78
2022-09-15T16:09:40.042Z,25.51
2022-09-15T16:14:52.281Z,25.20
2022-09-15T16:19:57.302Z,24.51
2022-09-15T16:24:59.540Z,24.34
2022-09-15T16:30:08.653Z,24.11
2022-09-15T16:35:25.053Z,23.82
2022-09-15T16:40:30.491Z,23.56
2022-09-15T16:45:39.726Z,23.13
2022-09-15T16:51:16.940Z,22.76
2022-09-15T16:56:16.663Z,22.72
2022-09-15T17:01:21.581Z,22.85
2022-09-15T17:06:24.267Z,22.55
2022-09-15T17:11:27.938Z,22.53
2022-09-15T17:16:30.090Z,22.33
2022-09-15T17:21:32.156Z,22.50
2022-09-15T17:26:34.614Z,22.49
2022-09-15T17:31:37.250Z,22.06
2022-09-15T17:36:42.208Z,21.47
2022-09-15T17:41:45.021Z,21.43
2022-09-15T17:46:47.117Z,21.06
2022-09-15T17:51:49.319Z,21.06
2022-09-15T17:56:53.702Z,20.95
2022-09-15T18:01:56.725Z,20.84
2022-09-15T18:06:59.088Z,20.66
2022-09-15T18:12:01.387Z,20.40
2022-09-15T18:17:03.539Z,20.41
2022-09-15T18:22:06.466Z,20.31
2022-09-15T18:27:09.239Z,20.32
2022-09-15T18:32:11.503Z,20.28
2022-09-15T18:37:13.976Z,20.35
2022-09-15T18:42:16.217Z,20.02
2022-09-15T18:47:18.253Z,20.00
2022-09-15T18:52:20.498Z,19.88
2022-09-15T18:57:23.022Z,19.85
2022-09-15T19:02:25.156Z,19.87
2022-09-15T19:07:28.708Z,19.64
2022-09-15T19:12:31.158Z,19.36
2022-09-15T19:17:33.627Z,19.17
2022-09-15T19:22:36.922Z,18.78
2022-09-15T19:27:40.168Z,18.41
2022-09-15T19:32:43.040Z,18.51
2022-09-15T19:37:45.624Z,18.21
2022-09-15T19:42:55.949Z,18.15
2022-09-15T19:47:59.506Z,17.88
2022-09-15T19:53:01.553Z,17.77
2022-09-15T19:58:03.664Z,17.68
2022-09-15T20:03:05.917Z,17.55
2022-09-15T20:08:08.270Z,17.66
2022-09-15T20:13:10.595Z,17.84
2022-09-15T20:18:13.588Z,17.85
2022-09-15T20:23:15.835Z,17.55
2022-09-15T20:28:17.874Z,17.63
2022-09-15T20:33:19.956Z,17.55
2022-09-15T20:38:22.084Z,17.29
2022-09-15T20:43:24.415Z,17.32
2022-09-15T20:48:29.613Z,17.39
2022-09-15T20:53:32.174Z,17.41
2022-09-15T20:58:35.821Z,17.44
2022-09-15T21:09:06.042Z,17.05
2022-09-15T21:14:08.280Z,17.16
2022-09-15T21:19:12.856Z,17.27
2022-09-15T21:24:14.927Z,17.12
2022-09-15T21:29:16.975Z,16.86
2022-09-15T21:34:19.503Z,16.76
2022-09-15T21:39:21.808Z,16.81
2022-09-15T21:44:24.223Z,16.84
2022-09-15T21:49:26.610Z,16.53
2022-09-15T21:54:28.712Z,16.55
2022-09-15T21:59:30.849Z,16.63
2022-09-15T22:04:33.129Z,16.56
2022-09-15T22:09:38.146Z,16.17
2022-09-15T22:14:40.206Z,16.22
2022-09-15T22:19:42.749Z,16.22
2022-09-15T22:24:45.313Z,16.21
2022-09-15T22:29:47.430Z,16.11
2022-09-15T23:03:33.346Z,16.20
2022-09-15T23:08:36.603Z,16.12
2022-09-15T23:13:42.033Z,15.68
2022-09-15T23:18:44.553Z,15.56
2022-09-15T23:23:49.441Z,15.61
2022-09-15T23:28:51.703Z,15.31
2022-09-15T23:33:53.879Z,15.20
2022-09-15T23:38:56.105Z,15.35
2022-09-15T23:44:00.028Z,15.40
2022-09-15T23:49:02.274Z,15.28
2022-09-15T23:54:04.987Z,15.35
2022-09-15T23:59:07.166Z,15.34
